Time;durP1;ratioP1;P1;durP2;ratioP2;P2;SDS_P1;SDS_P2;PMS_P1;PMS_P2;Temp;Humidity;BMP_temperature;BMP_pressure;BME280_temperature;BME280_humidity;BME280_pressure;Samples;Min_cycle;Max_cycle;Signal;HPM_P1;HPM_P2
2021/10/30 00:01:24;;;;;;;20.95;13.35;;;6.80;37.30;;;;;;5092887;27;20050;-68
2021/10/30 00:03:58;;;;;;;24.98;13.65;;;6.70;36.90;;;;;;5051738;28;20166;-68
2021/10/30 00:06:28;;;;;;;20.08;12.70;;;6.70;38.60;;;;;;5063040;27;20127;-69
2021/10/30 00:08:56;;;;;;;22.92;13.90;;;6.70;38.80;;;;;;5076203;28;20126;-69
2021/10/30 00:11:26;;;;;;;18.95;13.07;;;6.70;38.50;;;;;;5097660;27;20044;-68
2021/10/30 00:13:54;;;;;;;19.80;12.27;;;6.70;39.20;;;;;;5082617;28;20134;-68
2021/10/30 00:16:24;;;;;;;21.80;13.70;;;6.70;39.20;;;;;;5091239;27;20527;-68
2021/10/30 00:18:58;;;;;;;21.90;13.55;;;6.70;40.10;;;;;;5097040;27;20155;-68
2021/10/30 00:21:28;;;;;;;21.90;13.60;;;6.70;38.70;;;;;;5092005;28;20151;-68
2021/10/30 00:23:58;;;;;;;22.23;13.27;;;6.70;38.60;;;;;;5062637;28;20244;-68
2021/10/30 00:26:30;;;;;;;19.48;12.32;;;6.70;38.50;;;;;;5078539;28;20119;-69
2021/10/30 00:28:59;;;;;;;22.42;12.90;;;6.70;38.20;;;;;;5074516;28;20583;-68
2021/10/30 00:31:31;;;;;;;21.20;13.70;;;6.70;38.60;;;;;;5072865;28;20048;-69
2021/10/30 00:34:01;;;;;;;20.55;13.35;;;6.60;38.60;;;;;;5066805;28;20137;-69
2021/10/30 00:36:33;;;;;;;19.20;13.83;;;6.60;39.20;;;;;;5080250;28;20036;-68
2021/10/30 00:39:01;;;;;;;18.75;12.48;;;6.60;38.70;;;;;;5078508;28;20463;-68
2021/10/30 00:41:33;;;;;;;19.98;12.55;;;6.60;39.00;;;;;;5070199;28;20109;-69
2021/10/30 00:44:08;;;;;;;18.60;12.50;;;6.70;38.80;;;;;;5062836;28;20143;-69
2021/10/30 00:46:42;;;;;;;21.48;13.25;;;6.60;38.10;;;;;;5069640;28;20044;-69
2021/10/30 00:49:12;;;;;;;20.75;12.88;;;6.50;38.50;;;;;;5079587;27;20036;-69
2021/10/30 00:51:42;;;;;;;21.30;13.25;;;6.50;39.00;;;;;;5063366;28;20488;-68
2021/10/30 00:54:13;;;;;;;21.13;13.57;;;6.60;39.00;;;;;;5072985;28;20046;-69
2021/10/30 00:56:44;;;;;;;27.83;14.48;;;6.50;38.10;;;;;;5058815;28;20507;-68
2021/10/30 00:59:15;;;;;;;20.38;13.60;;;6.50;38.70;;;;;;5082202;27;20138;-69
2021/10/30 01:01:46;;;;;;;19.52;12.95;;;6.40;38.90;;;;;;5077753;28;20146;-69
2021/10/30 01:04:20;;;;;;;22.55;13.52;;;6.40;39.30;;;;;;5065987;28;20737;-69
2021/10/30 01:06:54;;;;;;;22.13;13.85;;;6.40;39.30;;;;;;5089850;27;20125;-69
2021/10/30 01:09:27;;;;;;;19.55;13.45;;;6.40;39.90;;;;;;5090047;28;20515;-69
2021/10/30 01:11:57;;;;;;;19.42;13.27;;;6.40;39.40;;;;;;5083443;27;20475;-68
2021/10/30 01:14:26;;;;;;;21.50;12.23;;;6.50;39.00;;;;;;5089807;28;20105;-68
2021/10/30 01:17:00;;;;;;;23.75;13.18;;;6.50;39.00;;;;;;5079296;28;20047;-67
2021/10/30 01:19:31;;;;;;;18.92;12.68;;;6.40;38.40;;;;;;5087594;27;20394;-67
2021/10/30 01:22:03;;;;;;;17.17;11.70;;;6.40;37.50;;;;;;5084057;27;20047;-67
2021/10/30 01:24:34;;;;;;;20.35;12.35;;;6.40;37.50;;;;;;5087031;28;20477;-67
2021/10/30 01:27:07;;;;;;;18.05;11.77;;;6.30;37.00;;;;;;5091122;27;20044;-67
2021/10/30 01:29:36;;;;;;;17.85;11.98;;;6.30;36.90;;;;;;5093994;27;20100;-68
2021/10/30 01:32:07;;;;;;;17.75;11.68;;;6.30;37.60;;;;;;5084755;28;20051;-68
2021/10/30 01:34:37;;;;;;;18.58;12.05;;;6.20;37.30;;;;;;5087263;28;20039;-68
2021/10/30 01:37:06;;;;;;;19.10;12.18;;;6.20;37.50;;;;;;5093815;27;20131;-68
2021/10/30 01:39:40;;;;;;;;;;;6.10;38.40;;;;;;5091172;28;20135;-67
2021/10/30 01:42:09;;;;;;;18.15;11.05;;;6.10;38.90;;;;;;5087767;28;19924;-67
2021/10/30 01:44:41;;;;;;;19.60;12.23;;;6.20;38.50;;;;;;5070584;28;20078;-67
2021/10/30 01:47:11;;;;;;;19.67;12.23;;;6.20;38.10;;;;;;5085621;27;20040;-67
2021/10/30 01:49:42;;;;;;;19.35;12.45;;;6.20;36.80;;;;;;5088554;27;20198;-68
2021/10/30 01:52:12;;;;;;;18.92;12.00;;;6.10;36.80;;;;;;5085437;28;20314;-68
2021/10/30 01:54:41;;;;;;;16.02;11.00;;;6.10;37.50;;;;;;5087375;28;20098;-68
2021/10/30 01:57:10;;;;;;;20.77;12.60;;;6.10;37.90;;;;;;5085998;27;20052;-68
2021/10/30 01:59:39;;;;;;;21.17;12.93;;;6.10;38.00;;;;;;5093122;28;20055;-68
2021/10/30 02:02:12;;;;;;;20.30;12.95;;;6.00;37.60;;;;;;5078493;28;20180;-68
2021/10/30 02:04:40;;;;;;;20.88;12.60;;;6.00;38.20;;;;;;5084140;28;20218;-68
2021/10/30 02:07:08;;;;;;;19.17;11.48;;;5.90;38.70;;;;;;5093392;28;21482;-68
2021/10/30 02:09:37;;;;;;;18.67;12.15;;;6.00;38.80;;;;;;5088730;28;20791;-68
2021/10/30 02:12:06;;;;;;;20.77;12.10;;;6.00;38.80;;;;;;5081254;28;20608;-68
2021/10/30 02:14:37;;;;;;;18.65;12.75;;;5.90;38.80;;;;;;5084930;28;20536;-68
2021/10/30 02:17:07;;;;;;;19.63;12.52;;;5.90;38.80;;;;;;5092022;28;20036;-69
2021/10/30 02:19:37;;;;;;;20.58;13.18;;;5.80;40.00;;;;;;5096122;28;20040;-69
2021/10/30 02:22:06;;;;;;;18.52;13.05;;;5.80;40.40;;;;;;5084983;28;21625;-69
2021/10/30 02:24:35;;;;;;;21.40;12.73;;;5.80;39.90;;;;;;5080745;28;20051;-69
2021/10/30 02:27:06;;;;;;;18.55;12.40;;;5.70;40.10;;;;;;5064875;28;20063;-69
2021/10/30 02:29:34;;;;;;;20.73;13.70;;;5.70;40.80;;;;;;5092640;28;20078;-69
2021/10/30 02:32:06;;;;;;;21.17;13.85;;;5.60;41.20;;;;;;5078100;28;20055;-69
2021/10/30 02:34:38;;;;;;;21.52;14.25;;;5.70;41.60;;;;;;5092208;28;20055;-69
2021/10/30 02:37:10;;;;;;;20.42;13.68;;;5.70;41.50;;;;;;5067715;28;20052;-68
2021/10/30 02:39:41;;;;;;;24.83;15.15;;;5.70;41.90;;;;;;5096181;28;20054;-68
2021/10/30 02:42:12;;;;;;;23.35;14.05;;;5.70;42.70;;;;;;5085975;28;20624;-68
2021/10/30 02:44:44;;;;;;;26.25;15.35;;;5.60;42.50;;;;;;5088162;28;20357;-68
2021/10/30 02:47:13;;;;;;;22.38;14.15;;;5.60;42.70;;;;;;5093921;28;20047;-68
2021/10/30 02:49:40;;;;;;;22.63;15.32;;;5.60;42.70;;;;;;5101066;28;20121;-68
2021/10/30 02:52:09;;;;;;;23.30;15.05;;;5.50;42.60;;;;;;5081544;28;20079;-68
2021/10/30 02:54:37;;;;;;;26.02;14.75;;;5.40;42.60;;;;;;5087998;28;20050;-67
2021/10/30 02:57:05;;;;;;;25.17;15.10;;;5.40;42.70;;;;;;5103530;28;20072;-68
2021/10/30 02:59:36;;;;;;;22.65;14.70;;;5.50;43.40;;;;;;5093466;28;20044;-68
2021/10/30 03:02:05;;;;;;;24.80;15.63;;;5.50;42.60;;;;;;5082654;28;20081;-68
2021/10/30 03:04:36;;;;;;;24.55;15.25;;;5.40;42.60;;;;;;5072859;28;20031;-68
2021/10/30 03:07:08;;;;;;;21.30;14.98;;;5.40;43.10;;;;;;5068944;28;20477;-68
2021/10/30 03:09:38;;;;;;;23.13;14.98;;;5.40;43.20;;;;;;5088926;27;20553;-68
2021/10/30 03:12:11;;;;;;;23.63;14.77;;;5.40;42.60;;;;;;5064717;28;21656;-68
2021/10/30 03:14:42;;;;;;;25.15;15.00;;;5.40;42.90;;;;;;5070352;28;20581;-68
2021/10/30 03:17:10;;;;;;;20.00;14.13;;;5.50;42.70;;;;;;5080350;28;20122;-68
2021/10/30 03:19:38;;;;;;;23.75;14.75;;;5.60;42.60;;;;;;5074106;28;20041;-67
2021/10/30 03:22:11;;;;;;;22.42;14.23;;;5.60;40.20;;;;;;5068651;28;21209;-67
2021/10/30 03:24:42;;;;;;;21.83;13.32;;;5.70;38.70;;;;;;5077483;28;20507;-67
2021/10/30 03:27:10;;;;;;;20.38;13.27;;;5.60;37.80;;;;;;5076807;28;20523;-67
2021/10/30 03:29:47;;;;;;;23.13;13.98;;;5.60;37.40;;;;;;5084010;28;20052;-67
2021/10/30 03:32:15;;;;;;;21.45;13.35;;;5.70;35.50;;;;;;5070115;28;20080;-68
2021/10/30 03:34:43;;;;;;;22.00;13.60;;;5.60;34.40;;;;;;5071730;28;20075;-67
2021/10/30 03:37:15;;;;;;;18.75;12.82;;;5.60;34.40;;;;;;5081721;28;20051;-67
2021/10/30 03:39:43;;;;;;;19.55;12.93;;;5.60;34.30;;;;;;5081063;28;20081;-68
2021/10/30 03:42:11;;;;;;;21.00;12.30;;;5.60;34.30;;;;;;5061350;28;20044;-67
2021/10/30 03:44:40;;;;;;;19.27;12.63;;;5.50;34.80;;;;;;5063923;28;20057;-68
2021/10/30 03:47:12;;;;;;;21.35;13.93;;;5.60;35.10;;;;;;5082031;28;20044;-67
2021/10/30 03:49:41;;;;;;;19.52;12.80;;;5.70;34.50;;;;;;5079693;28;20093;-68
2021/10/30 03:52:14;;;;;;;20.85;12.30;;;5.60;34.30;;;;;;5069398;28;20056;-69
2021/10/30 03:54:43;;;;;;;21.50;12.85;;;5.50;35.20;;;;;;5077550;28;20036;-67
2021/10/30 03:57:13;;;;;;;19.80;12.63;;;5.50;35.60;;;;;;5084309;28;20051;-69
2021/10/30 03:59:41;;;;;;;19.45;13.38;;;5.50;36.50;;;;;;5090181;28;20587;-69
2021/10/30 04:02:14;;;;;;;23.80;13.20;;;5.40;35.80;;;;;;5074647;28;20047;-69
2021/10/30 04:04:43;;;;;;;18.83;11.88;;;5.40;36.10;;;;;;5085139;28;20171;-68
2021/10/30 04:07:11;;;;;;;20.13;13.15;;;5.40;36.30;;;;;;5088431;28;20067;-68
2021/10/30 04:09:41;;;;;;;19.85;13.23;;;5.40;36.20;;;;;;5079200;28;20048;-69
2021/10/30 04:12:13;;;;;;;21.17;13.85;;;5.40;35.70;;;;;;5073174;28;20055;-67
2021/10/30 04:14:41;;;;;;;18.38;12.15;;;5.40;34.20;;;;;;5082167;28;20164;-66
2021/10/30 04:17:09;;;;;;;18.25;11.80;;;5.40;34.50;;;;;;5076393;28;20110;-67
2021/10/30 04:19:39;;;;;;;18.35;11.98;;;5.40;34.20;;;;;;5077877;28;20401;-68
2021/10/30 04:22:11;;;;;;;18.13;12.05;;;5.40;33.40;;;;;;5068095;28;20150;-68
2021/10/30 04:24:45;;;;;;;17.83;12.23;;;5.40;33.80;;;;;;5069299;28;20135;-68
2021/10/30 04:27:13;;;;;;;19.33;12.57;;;5.30;34.10;;;;;;5077865;28;22128;-68
2021/10/30 04:29:41;;;;;;;18.95;12.00;;;5.30;34.10;;;;;;5081296;28;20041;-68
2021/10/30 04:32:15;;;;;;;21.88;12.93;;;5.20;34.00;;;;;;5064817;28;20052;-68
2021/10/30 04:34:57;;;;;;;20.77;12.73;;;5.20;34.90;;;;;;5081028;28;20044;-68
2021/10/30 04:37:25;;;;;;;20.75;12.65;;;5.10;36.00;;;;;;5080718;28;20519;-68
2021/10/30 04:39:54;;;;;;;20.73;12.40;;;5.20;37.50;;;;;;5085347;28;20222;-68
2021/10/30 04:42:23;;;;;;;21.13;12.25;;;5.30;36.40;;;;;;5065682;28;20045;-68
2021/10/30 04:44:51;;;;;;;19.15;12.63;;;5.30;36.00;;;;;;5078481;28;20076;-68
2021/10/30 04:47:19;;;;;;;21.05;12.57;;;5.20;36.30;;;;;;5087600;28;20108;-68
2021/10/30 04:49:54;;;;;;;21.23;12.25;;;5.30;36.50;;;;;;5082111;28;20044;-68
2021/10/30 04:52:24;;;;;;;18.38;11.57;;;5.20;35.80;;;;;;5057660;28;20043;-68
2021/10/30 04:54:58;;;;;;;;;;;5.20;36.50;;;;;;5076395;28;20068;-68
2021/10/30 04:57:26;;;;;;;17.45;11.75;;;5.10;37.30;;;;;;5076602;28;19973;-68
2021/10/30 04:59:57;;;;;;;17.52;10.77;;;5.10;35.80;;;;;;5079369;28;20068;-68
2021/10/30 05:02:31;;;;;;;15.55;11.02;;;5.00;34.50;;;;;;5063064;28;20117;-68
2021/10/30 05:05:04;;;;;;;17.80;11.55;;;4.90;35.20;;;;;;5087298;28;20066;-68
2021/10/30 05:07:35;;;;;;;15.82;10.02;;;4.90;34.50;;;;;;5086440;28;20052;-68
2021/10/30 05:10:09;;;;;;;16.73;10.80;;;4.80;33.70;;;;;;5089126;28;20048;-68
2021/10/30 05:12:38;;;;;;;16.13;10.73;;;4.80;34.50;;;;;;5062566;28;20118;-68
2021/10/30 05:15:06;;;;;;;15.13;10.07;;;4.70;34.70;;;;;;5075301;28;20094;-68
2021/10/30 05:17:39;;;;;;;19.92;10.60;;;4.70;35.40;;;;;;5082907;28;20074;-68
2021/10/30 05:20:12;;;;;;;19.83;11.82;;;4.70;35.70;;;;;;5086725;27;20509;-68
2021/10/30 05:22:40;;;;;;;18.33;11.35;;;4.80;36.10;;;;;;5084282;28;20131;-67
2021/10/30 05:25:10;;;;;;;19.27;12.60;;;4.70;36.30;;;;;;5086101;28;20055;-68
2021/10/30 05:27:43;;;;;;;20.57;12.23;;;4.60;36.20;;;;;;5095718;28;20046;-68
2021/10/30 05:30:13;;;;;;;20.52;12.70;;;4.50;37.60;;;;;;5094034;28;20039;-68
2021/10/30 05:32:40;;;;;;;18.77;12.38;;;4.40;38.70;;;;;;5081165;28;20093;-67
2021/10/30 05:35:09;;;;;;;21.08;13.30;;;4.50;39.90;;;;;;5081596;28;20055;-68
2021/10/30 05:37:42;;;;;;;22.27;13.40;;;4.50;40.60;;;;;;5090612;28;20055;-68
2021/10/30 05:40:15;;;;;;;20.85;13.07;;;4.50;40.20;;;;;;5093631;28;20469;-68
2021/10/30 05:42:46;;;;;;;19.70;12.77;;;4.50;40.40;;;;;;5083722;28;20052;-68
2021/10/30 05:45:17;;;;;;;19.75;12.23;;;4.50;40.60;;;;;;5077109;28;20048;-68
2021/10/30 05:47:46;;;;;;;19.63;13.05;;;4.50;40.60;;;;;;5079896;28;20101;-68
2021/10/30 05:50:17;;;;;;;24.85;13.68;;;4.50;40.90;;;;;;5079554;28;20048;-68
2021/10/30 05:52:49;;;;;;;18.38;11.43;;;4.70;40.20;;;;;;5079011;28;20052;-68
2021/10/30 05:55:22;;;;;;;;;;;4.80;38.50;;;;;;5078197;28;20093;-67
2021/10/30 05:57:50;;;;;;;18.33;11.95;;;4.80;37.30;;;;;;5080808;28;20292;-67
2021/10/30 06:00:18;;;;;;;21.65;12.95;;;4.70;36.40;;;;;;5086707;28;20140;-68
2021/10/30 06:02:46;;;;;;;18.40;11.80;;;4.80;37.10;;;;;;5087111;28;20829;-68
2021/10/30 06:05:16;;;;;;;19.73;11.07;;;4.80;36.50;;;;;;5088837;28;20044;-68
2021/10/30 06:07:49;;;;;;;20.67;12.27;;;4.80;36.20;;;;;;5092714;28;20043;-67
2021/10/30 06:10:17;;;;;;;19.83;11.75;;;4.90;36.00;;;;;;5094305;28;20043;-68
2021/10/30 06:12:50;;;;;;;20.60;11.80;;;5.00;35.20;;;;;;5086187;28;20136;-68
2021/10/30 06:15:20;;;;;;;16.30;11.18;;;5.00;34.90;;;;;;5086655;28;20075;-69
2021/10/30 06:17:51;;;;;;;19.20;12.75;;;5.00;35.00;;;;;;5079943;28;20055;-68
2021/10/30 06:20:19;;;;;;;18.40;11.82;;;5.00;33.80;;;;;;5081702;28;20063;-68
2021/10/30 06:22:47;;;;;;;18.35;11.73;;;5.00;33.80;;;;;;5084501;28;20158;-69
2021/10/30 06:25:16;;;;;;;18.83;11.20;;;5.00;33.20;;;;;;5088292;28;20415;-68
2021/10/30 06:27:46;;;;;;;17.88;12.13;;;4.90;33.60;;;;;;5089459;28;20483;-68
2021/10/30 06:30:17;;;;;;;16.92;11.65;;;4.80;33.70;;;;;;5087020;28;20499;-69
2021/10/30 06:32:51;;;;;;;19.13;11.27;;;4.80;33.70;;;;;;5081807;28;20044;-68
2021/10/30 06:35:19;;;;;;;14.80;10.68;;;4.80;33.80;;;;;;5089343;28;20040;-68
2021/10/30 06:37:53;;;;;;;19.97;13.43;;;4.80;33.40;;;;;;5092243;28;20619;-68
2021/10/30 06:40:22;;;;;;;16.65;11.60;;;4.80;33.70;;;;;;5082022;28;20385;-69
2021/10/30 06:42:50;;;;;;;17.50;11.65;;;4.80;33.70;;;;;;5085706;28;20086;-69
2021/10/30 06:45:18;;;;;;;16.08;11.07;;;4.80;33.90;;;;;;5089315;28;20079;-68
2021/10/30 06:47:46;;;;;;;18.92;11.85;;;4.90;33.80;;;;;;5094227;28;20066;-68
2021/10/30 06:50:21;;;;;;;14.43;10.32;;;5.00;32.60;;;;;;5092275;28;20055;-68
2021/10/30 06:52:54;;;;;;;19.02;11.23;;;5.10;30.20;;;;;;5077757;28;20060;-68
2021/10/30 06:55:25;;;;;;;16.40;10.82;;;5.10;29.80;;;;;;5090769;28;20461;-68
2021/10/30 06:57:53;;;;;;;18.73;11.20;;;5.00;30.50;;;;;;5083853;28;20064;-68
2021/10/30 07:00:26;;;;;;;15.77;9.63;;;5.10;29.90;;;;;;5091455;28;20044;-68
2021/10/30 07:02:54;;;;;;;13.10;9.38;;;5.20;27.50;;;;;;5086598;27;20668;-68
2021/10/30 07:05:26;;;;;;;13.85;9.57;;;5.10;26.50;;;;;;5089138;28;20036;-68
2021/10/30 07:07:54;;;;;;;13.18;9.27;;;5.20;24.90;;;;;;5082594;28;20071;-69
2021/10/30 07:10:28;;;;;;;17.02;9.82;;;5.20;24.50;;;;;;5082047;28;20044;-69
2021/10/30 07:12:56;;;;;;;15.98;9.50;;;5.20;25.40;;;;;;5080570;28;20079;-68
2021/10/30 07:15:24;;;;;;;14.93;8.98;;;5.40;25.50;;;;;;5077679;27;20040;-68
2021/10/30 07:17:54;;;;;;;13.77;8.90;;;5.50;24.40;;;;;;5085214;28;20545;-68
2021/10/30 07:20:27;;;;;;;14.98;9.38;;;5.60;24.40;;;;;;5092946;28;20168;-68
2021/10/30 07:23:01;;;;;;;14.52;8.68;;;5.70;23.50;;;;;;5076359;28;20522;-67
2021/10/30 07:25:31;;;;;;;11.82;8.27;;;5.90;22.60;;;;;;5097135;28;20169;-67
2021/10/30 07:28:00;;;;;;;13.05;8.98;;;6.00;19.60;;;;;;5086230;28;20047;-68
2021/10/30 07:30:33;;;;;;;12.77;8.55;;;5.90;19.70;;;;;;5092646;28;20054;-68
2021/10/30 07:33:01;;;;;;;13.05;9.05;;;6.00;20.20;;;;;;5084441;28;20047;-67
2021/10/30 07:35:30;;;;;;;14.57;9.27;;;6.10;19.20;;;;;;5088065;28;20044;-68
2021/10/30 07:38:02;;;;;;;11.57;8.02;;;6.20;19.50;;;;;;5078060;28;20079;-68
2021/10/30 07:40:37;;;;;;;14.17;8.10;;;6.30;18.50;;;;;;5097395;28;20046;-68
2021/10/30 07:43:06;;;;;;;12.32;8.73;;;6.40;17.70;;;;;;5075431;28;20043;-68
2021/10/30 07:45:34;;;;;;;12.25;8.18;;;6.50;17.10;;;;;;5083481;28;20070;-68
2021/10/30 07:48:04;;;;;;;11.93;8.10;;;6.50;15.80;;;;;;5084197;28;20044;-67
2021/10/30 07:50:36;;;;;;;11.55;8.02;;;6.50;16.20;;;;;;5082706;28;20040;-68
2021/10/30 07:53:04;;;;;;;15.27;8.70;;;6.50;14.80;;;;;;5089627;28;20040;-68
2021/10/30 07:55:32;;;;;;;12.45;7.60;;;6.60;14.40;;;;;;5091763;28;20131;-68
2021/10/30 07:58:02;;;;;;;12.32;8.80;;;6.60;14.50;;;;;;5093428;28;20092;-68
2021/10/30 08:00:34;;;;;;;12.63;8.60;;;6.60;14.90;;;;;;5084412;28;20079;-67
2021/10/30 08:03:03;;;;;;;12.32;8.98;;;6.70;14.20;;;;;;5081703;28;20124;-68
2021/10/30 08:05:32;;;;;;;13.55;8.98;;;6.80;14.70;;;;;;5087597;27;20088;-69
2021/10/30 08:08:01;;;;;;;13.40;8.82;;;7.00;14.30;;;;;;5093408;28;20055;-68
2021/10/30 08:10:31;;;;;;;15.25;9.65;;;7.10;13.70;;;;;;5092700;28;20448;-68
2021/10/30 08:13:00;;;;;;;12.02;8.63;;;7.10;13.40;;;;;;5074197;28;20036;-67
2021/10/30 08:15:29;;;;;;;11.95;8.57;;;7.00;13.80;;;;;;5082062;28;20064;-67
2021/10/30 08:17:59;;;;;;;14.27;9.30;;;7.10;14.40;;;;;;5085913;28;20491;-68
2021/10/30 08:20:29;;;;;;;15.15;10.07;;;7.10;13.00;;;;;;5092282;28;20081;-68
2021/10/30 08:23:00;;;;;;;22.05;12.98;;;7.30;14.00;;;;;;5091175;28;20124;-68
2021/10/30 08:25:31;;;;;;;19.77;9.52;;;7.40;13.70;;;;;;5088833;28;20074;-68
2021/10/30 08:28:00;;;;;;;16.23;9.55;;;7.50;11.40;;;;;;5083219;28;20086;-68
2021/10/30 08:30:30;;;;;;;12.90;8.52;;;7.50;10.20;;;;;;5088252;28;20470;-68
2021/10/30 08:33:00;;;;;;;13.13;8.25;;;7.60;10.10;;;;;;5088831;28;20127;-68
2021/10/30 08:35:29;;;;;;;11.35;7.93;;;7.70;9.00;;;;;;5089794;28;20067;-69
2021/10/30 08:38:00;;;;;;;13.60;9.05;;;7.80;8.30;;;;;;5081399;28;20052;-69
2021/10/30 08:40:33;;;;;;;13.70;8.48;;;7.90;8.00;;;;;;5078659;28;20167;-67
2021/10/30 08:43:09;;;;;;;15.85;8.73;;;7.90;7.20;;;;;;5079152;28;20055;-68
2021/10/30 08:45:42;;;;;;;11.90;7.82;;;8.00;7.20;;;;;;5074285;28;20149;-69
2021/10/30 08:48:11;;;;;;;14.07;8.60;;;8.10;7.30;;;;;;5083843;28;20118;-68
2021/10/30 08:50:39;;;;;;;16.88;8.55;;;8.20;7.40;;;;;;5088200;28;20048;-68
2021/10/30 08:53:12;;;;;;;13.63;8.68;;;8.10;7.30;;;;;;5077954;28;20040;-68
2021/10/30 08:55:40;;;;;;;16.50;8.75;;;8.20;7.40;;;;;;5076145;28;20076;-68
2021/10/30 08:58:09;;;;;;;14.32;9.07;;;8.20;8.20;;;;;;5087308;28;20048;-69
2021/10/30 09:00:44;;;;;;;12.98;9.13;;;8.30;7.40;;;;;;5077543;28;20048;-67
2021/10/30 09:03:14;;;;;;;11.20;8.63;;;8.40;7.50;;;;;;5081750;28;20044;-68
2021/10/30 09:05:49;;;;;;;10.95;8.23;;;8.60;6.70;;;;;;5084815;28;20130;-68
2021/10/30 09:08:24;;;;;;;16.92;8.73;;;8.50;5.60;;;;;;5078423;28;20053;-68
2021/10/30 09:10:59;;;;;;;12.27;8.75;;;8.60;5.30;;;;;;5079974;28;20044;-69
2021/10/30 09:13:30;;;;;;;15.50;8.82;;;8.60;5.00;;;;;;5080861;28;20037;-68
2021/10/30 09:16:02;;;;;;;13.27;8.88;;;8.50;4.90;;;;;;5086626;28;20495;-68
2021/10/30 09:18:32;;;;;;;14.10;8.68;;;8.60;5.00;;;;;;5093463;28;20119;-69
2021/10/30 09:21:14;;;;;;;13.60;8.50;;;8.80;4.90;;;;;;5092111;28;20044;-69
2021/10/30 09:23:47;;;;;;;13.90;8.98;;;8.80;4.10;;;;;;5073147;28;20456;-67
2021/10/30 09:26:22;;;;;;;14.40;9.10;;;8.80;4.70;;;;;;5089705;28;20059;-69
2021/10/30 09:28:54;;;;;;;14.90;8.50;;;8.90;4.10;;;;;;5094207;28;20102;-68
2021/10/30 09:31:24;;;;;;;13.68;9.13;;;8.90;4.10;;;;;;5071368;28;20054;-68
2021/10/30 09:33:54;;;;;;;13.20;9.30;;;8.90;4.10;;;;;;5082953;28;20572;-69
2021/10/30 09:36:27;;;;;;;17.75;10.15;;;8.80;4.10;;;;;;5081164;28;20135;-69
2021/10/30 09:38:58;;;;;;;14.60;8.38;;;8.90;4.40;;;;;;5067933;28;20040;-69
2021/10/30 09:41:45;;;;;;;14.13;9.07;;;9.00;4.20;;;;;;5084220;28;20051;-68
2021/10/30 09:44:33;;;;;;;16.45;10.13;;;9.10;4.20;;;;;;5094962;28;20043;-68
2021/10/30 09:47:05;;;;;;;16.65;10.73;;;9.00;4.10;;;;;;5086912;28;20066;-68
2021/10/30 09:49:37;;;;;;;13.82;9.40;;;9.00;4.40;;;;;;5097547;28;20122;-68
2021/10/30 09:52:12;;;;;;;14.88;9.63;;;8.80;4.50;;;;;;5084769;28;20074;-68
2021/10/30 09:54:50;;;;;;;13.38;9.93;;;8.80;4.10;;;;;;5098700;28;20039;-68
2021/10/30 09:57:31;;;;;;;14.43;10.40;;;8.80;4.10;;;;;;5099888;27;20688;-68
2021/10/30 10:00:00;;;;;;;13.90;9.35;;;8.60;7.60;;;;;;5090823;27;20040;-68
2021/10/30 10:02:38;;;;;;;14.48;9.50;;;8.50;9.90;;;;;;5094199;28;20050;-68
2021/10/30 10:05:09;;;;;;;14.82;9.15;;;8.50;9.70;;;;;;5103295;28;20122;-68
2021/10/30 10:07:39;;;;;;;14.90;9.43;;;8.50;9.70;;;;;;5088374;28;20126;-68
2021/10/30 10:10:11;;;;;;;18.92;10.07;;;8.40;9.30;;;;;;5099325;28;20077;-68
2021/10/30 10:12:40;;;;;;;13.95;10.18;;;8.50;10.00;;;;;;5093614;27;20067;-68
2021/10/30 10:15:09;;;;;;;14.80;10.35;;;8.40;11.40;;;;;;5097340;28;20051;-68
2021/10/30 10:17:41;;;;;;;15.57;10.38;;;8.20;12.50;;;;;;5081233;28;20252;-68
2021/10/30 10:20:11;;;;;;;13.68;9.98;;;8.10;13.90;;;;;;5104146;27;20525;-67
2021/10/30 10:22:42;;;;;;;13.82;10.05;;;8.00;14.90;;;;;;5096921;28;20409;-67
2021/10/30 10:25:32;;;;;;;13.50;10.00;;;8.10;15.30;;;;;;5106148;27;20054;-68
2021/10/30 10:28:22;;;;;;;16.25;10.80;;;8.20;14.70;;;;;;5102338;27;20560;-68
2021/10/30 10:30:57;;;;;;;16.40;10.90;;;8.30;14.80;;;;;;5104203;27;20113;-68
2021/10/30 10:33:33;;;;;;;16.02;11.05;;;8.40;13.80;;;;;;5082772;28;20483;-68
2021/10/30 10:36:22;;;;;;;17.83;11.80;;;8.40;14.30;;;;;;5106953;28;20035;-68
2021/10/30 10:39:26;;;;;;;16.35;11.30;;;8.40;14.80;;;;;;5103609;27;20054;-68
2021/10/30 10:42:01;;;;;;;18.15;11.23;;;8.50;14.40;;;;;;5080955;28;20117;-68
2021/10/30 10:44:59;;;;;;;14.15;10.32;;;8.60;14.70;;;;;;5100496;27;20126;-67
2021/10/30 10:48:01;;;;;;;19.23;11.50;;;8.50;14.50;;;;;;5105417;27;20051;-67
2021/10/30 10:50:35;;;;;;;17.45;12.27;;;8.50;15.20;;;;;;5103364;27;20051;-68
2021/10/30 10:53:19;;;;;;;18.80;12.00;;;8.50;15.20;;;;;;5098424;27;20487;-68
2021/10/30 10:56:22;;;;;;;16.77;12.02;;;8.40;14.80;;;;;;5106005;27;20055;-69
2021/10/30 10:59:13;;;;;;;17.67;11.02;;;8.30;15.70;;;;;;5025654;28;20049;-69
2021/10/30 11:02:15;;;;;;;17.30;11.27;;;8.30;15.50;;;;;;5095583;27;20078;-68
2021/10/30 11:05:24;;;;;;;16.75;11.40;;;8.30;14.70;;;;;;5090511;28;20051;-68
2021/10/30 11:08:30;;;;;;;16.70;11.27;;;8.20;14.60;;;;;;5065922;28;20036;-68
2021/10/30 11:11:25;;;;;;;15.00;9.93;;;8.30;15.40;;;;;;5082374;28;20040;-68
2021/10/30 11:14:00;;;;;;;14.17;9.43;;;8.30;15.70;;;;;;5064962;28;20211;-68
2021/10/30 11:16:37;;;;;;;17.30;10.48;;;8.10;16.20;;;;;;5080857;28;20276;-68
2021/10/30 11:19:15;;;;;;;13.95;10.20;;;8.20;17.90;;;;;;5092978;28;20128;-68
2021/10/30 11:21:50;;;;;;;16.58;10.98;;;8.20;16.90;;;;;;5088420;27;20052;-67
2021/10/30 11:24:24;;;;;;;;;;;8.20;16.80;;;;;;5078060;28;20396;-68
2021/10/30 11:27:06;;;;;;;15.57;10.45;;;8.30;18.70;;;;;;5088719;28;19958;-68
2021/10/30 11:29:48;;;;;;;15.93;10.90;;;8.20;18.20;;;;;;5094088;28;20136;-68
2021/10/30 11:32:17;;;;;;;17.58;11.55;;;8.00;17.30;;;;;;5089286;28;20075;-69
2021/10/30 11:34:52;;;;;;;13.30;10.68;;;8.10;17.20;;;;;;5079048;28;20037;-69
2021/10/30 11:37:21;;;;;;;14.18;10.60;;;8.00;16.40;;;;;;5083751;28;20064;-68
2021/10/30 11:39:53;;;;;;;16.00;11.43;;;8.10;18.10;;;;;;5091004;28;20579;-69
2021/10/30 11:42:21;;;;;;;18.65;11.98;;;8.10;19.00;;;;;;5096039;28;20044;-68
2021/10/30 11:44:52;;;;;;;18.98;12.02;;;8.30;18.20;;;;;;5089969;28;20131;-68
2021/10/30 11:47:26;;;;;;;14.85;10.38;;;8.20;17.60;;;;;;5090344;28;20040;-68
2021/10/30 11:49:54;;;;;;;17.63;12.57;;;8.30;17.50;;;;;;5085467;28;20078;-68
2021/10/30 11:52:24;;;;;;;16.80;12.07;;;8.30;17.30;;;;;;5087882;28;20138;-68
2021/10/30 11:54:58;;;;;;;17.38;12.32;;;8.30;17.10;;;;;;5091082;28;20065;-68
2021/10/30 11:57:26;;;;;;;17.63;11.57;;;8.40;16.80;;;;;;5092622;28;20039;-67
2021/10/30 12:00:01;;;;;;;18.50;12.18;;;8.40;16.50;;;;;;5094004;28;20040;-68
2021/10/30 12:02:29;;;;;;;17.00;11.55;;;8.40;16.50;;;;;;5074373;28;20127;-67
2021/10/30 12:05:07;;;;;;;16.63;11.27;;;8.50;16.40;;;;;;5093131;28;20039;-67
2021/10/30 12:07:37;;;;;;;19.70;12.50;;;8.60;16.50;;;;;;5082201;28;20056;-67
2021/10/30 12:10:11;;;;;;;17.85;11.80;;;8.60;18.00;;;;;;5085523;28;20083;-69
2021/10/30 12:12:44;;;;;;;18.77;12.00;;;8.60;19.50;;;;;;5083512;27;20801;-68
2021/10/30 12:15:12;;;;;;;19.27;12.40;;;8.60;21.70;;;;;;5086362;28;20044;-68
2021/10/30 12:17:40;;;;;;;17.77;12.35;;;8.60;24.70;;;;;;5093159;28;20164;-69
2021/10/30 12:20:10;;;;;;;19.88;12.70;;;8.70;25.90;;;;;;5093927;28;20118;-67
2021/10/30 12:22:43;;;;;;;19.17;12.98;;;8.70;26.30;;;;;;5078442;28;20527;-67
2021/10/30 12:25:30;;;;;;;23.83;14.02;;;8.90;27.70;;;;;;5080560;28;20051;-68
2021/10/30 12:28:00;;;;;;;27.75;15.18;;;8.80;25.80;;;;;;5074869;28;20059;-68
2021/10/30 12:30:32;;;;;;;28.85;16.23;;;8.90;28.90;;;;;;5090223;28;20048;-67
2021/10/30 12:33:10;;;;;;;20.67;14.00;;;8.90;28.90;;;;;;5086667;28;20123;-69
2021/10/30 12:35:40;;;;;;;19.20;13.45;;;8.90;28.90;;;;;;5091261;28;20063;-68
2021/10/30 12:38:12;;;;;;;23.55;14.63;;;8.80;29.60;;;;;;5073140;28;20105;-67
2021/10/30 12:40:44;;;;;;;18.95;13.98;;;8.80;29.30;;;;;;5095727;28;20056;-68
2021/10/30 12:43:20;;;;;;;21.23;13.85;;;8.70;28.80;;;;;;5077101;28;20049;-69
2021/10/30 12:45:50;;;;;;;22.52;15.23;;;8.80;29.70;;;;;;5082829;28;20525;-67
2021/10/30 12:48:20;;;;;;;22.23;15.13;;;8.80;28.90;;;;;;5089865;28;20115;-68
2021/10/30 12:50:59;;;;;;;19.50;14.27;;;8.90;29.20;;;;;;5084614;28;20056;-68
2021/10/30 12:53:32;;;;;;;18.70;13.77;;;8.90;29.80;;;;;;5079422;28;20039;-68
2021/10/30 12:56:05;;;;;;;21.17;14.38;;;8.90;28.90;;;;;;5081357;28;20621;-68
2021/10/30 12:58:38;;;;;;;22.00;14.60;;;8.90;29.80;;;;;;5089472;28;20048;-69
2021/10/30 13:01:15;;;;;;;26.23;15.48;;;9.00;30.90;;;;;;5079288;28;20043;-68
2021/10/30 13:03:49;;;;;;;26.00;14.57;;;9.00;32.10;;;;;;5075325;28;20588;-68
2021/10/30 13:06:22;;;;;;;25.65;14.70;;;8.90;34.10;;;;;;5080417;28;20122;-68